createdAt,value
2023-05-21T00:00:25.584Z,51.66
2023-05-21T00:01:28.759Z,51.49
2023-05-21T00:02:31.775Z,51.31
2023-05-21T00:03:36.626Z,51.41
2023-05-21T00:04:41.223Z,51.62
2023-05-21T00:05:45.547Z,51.82
2023-05-21T00:06:49.103Z,51.69
2023-05-21T00:07:54.324Z,51.59
2023-05-21T00:08:57.628Z,51.52
2023-05-21T00:10:01.667Z,51.91
2023-05-21T00:11:07.152Z,51.71
2023-05-21T00:12:10.707Z,52.36
2023-05-21T00:13:14.139Z,52.30
2023-05-21T00:14:17.850Z,52.25
2023-05-21T00:15:20.976Z,52.40
2023-05-21T00:16:24.459Z,52.76
2023-05-21T00:17:28.641Z,52.78
2023-05-21T00:18:33.247Z,53.27
2023-05-21T00:19:36.797Z,53.11
2023-05-21T00:20:42.676Z,53.46
2023-05-21T00:21:46.568Z,53.05
2023-05-21T00:22:49.781Z,52.79
2023-05-21T00:23:57.183Z,53.14
2023-05-21T00:25:00.786Z,52.90
2023-05-21T00:26:04.558Z,52.66
2023-05-21T00:27:07.850Z,52.69
2023-05-21T00:28:11.802Z,52.92
2023-05-21T00:29:15.579Z,53.08
2023-05-21T00:30:19.268Z,53.19
2023-05-21T00:31:22.491Z,53.33
2023-05-21T00:32:26.215Z,53.51
2023-05-21T00:33:29.913Z,53.15
2023-05-21T00:34:33.295Z,53.17
2023-05-21T00:35:37.103Z,53.23
2023-05-21T00:36:41.170Z,53.08
2023-05-21T00:37:44.851Z,52.96
2023-05-21T00:38:48.025Z,52.67
2023-05-21T00:39:51.777Z,52.95
2023-05-21T00:40:55.380Z,52.63
2023-05-21T00:41:58.625Z,52.62
2023-05-21T00:43:03.010Z,53.04
2023-05-21T00:44:07.331Z,52.81
2023-05-21T00:45:11.418Z,53.38
2023-05-21T00:46:16.998Z,53.15
2023-05-21T00:47:22.104Z,53.24
2023-05-21T00:48:25.334Z,52.85
2023-05-21T00:49:28.756Z,52.88
2023-05-21T00:50:32.934Z,52.79
2023-05-21T00:51:36.530Z,52.83
2023-05-21T00:52:42.851Z,52.95
2023-05-21T00:53:47.155Z,53.03
2023-05-21T00:54:50.933Z,53.24
2023-05-21T00:55:54.129Z,53.10
2023-05-21T00:56:57.459Z,53.44
2023-05-21T00:58:00.799Z,53.49
2023-05-21T00:59:06.469Z,53.50
2023-05-21T01:00:13.081Z,53.45
2023-05-21T01:01:17.075Z,53.39
2023-05-21T01:02:21.098Z,54.03
2023-05-21T01:03:25.229Z,54.02
2023-05-21T01:04:28.851Z,54.20
2023-05-21T01:05:33.117Z,53.61
2023-05-21T01:06:36.454Z,53.52
2023-05-21T01:07:40.312Z,53.59
2023-05-21T01:08:43.757Z,53.46
2023-05-21T01:09:47.349Z,53.79
2023-05-21T01:10:50.981Z,53.28
2023-05-21T01:11:54.153Z,53.65
2023-05-21T01:12:58.983Z,53.83
2023-05-21T01:14:02.318Z,54.25
2023-05-21T01:15:06.109Z,54.18
2023-05-21T01:16:10.207Z,54.69
2023-05-21T01:17:13.726Z,54.40
2023-05-21T01:18:16.948Z,54.06
2023-05-21T01:19:21.724Z,54.03
2023-05-21T01:20:25.523Z,53.92
2023-05-21T01:21:29.357Z,54.37
2023-05-21T01:22:33.354Z,54.42
2023-05-21T01:23:36.770Z,54.68
2023-05-21T01:24:40.035Z,54.52
2023-05-21T01:25:43.209Z,54.39
2023-05-21T01:26:50.526Z,54.67
2023-05-21T01:27:53.934Z,54.65
2023-05-21T01:28:57.108Z,54.37
2023-05-21T01:30:01.007Z,54.59
2023-05-21T01:31:13.278Z,54.52
2023-05-21T01:32:22.049Z,54.56
2023-05-21T01:33:31.092Z,55.03
2023-05-21T01:35:06.179Z,54.85
2023-05-21T01:36:25.107Z,54.24
2023-05-21T01:37:37.962Z,54.28
2023-05-21T01:38:53.431Z,55.36
2023-05-21T01:39:57.857Z,55.68
2023-05-21T01:41:05.020Z,55.72
2023-05-21T01:42:11.357Z,55.61
2023-05-21T01:43:14.982Z,55.00
2023-05-21T01:44:19.095Z,55.14
2023-05-21T01:45:23.750Z,55.52
2023-05-21T01:46:28.696Z,55.17
2023-05-21T01:47:32.108Z,55.35
2023-05-21T01:48:35.167Z,55.04
2023-05-21T01:49:38.285Z,56.15
2023-05-21T01:50:42.266Z,55.73
2023-05-21T01:51:45.972Z,55.66
2023-05-21T01:52:51.577Z,56.62
2023-05-21T01:53:55.409Z,56.72
2023-05-21T01:54:58.638Z,56.68
2023-05-21T01:56:03.705Z,56.60
2023-05-21T01:57:07.807Z,56.97
2023-05-21T01:58:11.543Z,56.89
2023-05-21T01:59:15.037Z,57.17
2023-05-21T02:00:19.312Z,57.66
2023-05-21T02:01:22.894Z,57.60
2023-05-21T02:02:26.881Z,57.40
2023-05-21T02:03:31.683Z,57.82
2023-05-21T02:04:35.386Z,57.57
2023-05-21T02:05:39.103Z,57.75
2023-05-21T02:06:42.937Z,57.52
2023-05-21T02:07:47.037Z,57.19
2023-05-21T02:08:51.202Z,57.61
2023-05-21T02:09:54.637Z,57.19
2023-05-21T02:10:57.797Z,57.09
2023-05-21T02:12:02.271Z,56.67
2023-05-21T02:13:05.312Z,56.72
2023-05-21T02:14:11.417Z,56.62
2023-05-21T02:15:14.861Z,56.47
2023-05-21T02:16:18.303Z,56.04
2023-05-21T02:17:22.426Z,55.94
2023-05-21T02:18:27.292Z,55.82
2023-05-21T02:19:30.701Z,56.79
2023-05-21T02:20:34.229Z,57.04
2023-05-21T02:21:37.533Z,56.88
2023-05-21T02:22:41.881Z,56.78
2023-05-21T02:23:45.453Z,56.61
2023-05-21T02:24:49.075Z,56.78
2023-05-21T02:25:52.497Z,56.44
2023-05-21T02:26:55.574Z,56.16
2023-05-21T02:27:58.901Z,56.25
2023-05-21T02:29:02.155Z,55.95
2023-05-21T02:30:06.389Z,55.54
2023-05-21T02:31:09.900Z,55.23
2023-05-21T02:32:14.482Z,55.50
2023-05-21T02:33:18.180Z,55.08
2023-05-21T02:34:22.984Z,54.85
2023-05-21T02:35:26.965Z,55.10
2023-05-21T02:36:34.288Z,55.10
2023-05-21T02:37:38.603Z,54.52
2023-05-21T02:38:44.488Z,54.71
2023-05-21T02:39:48.043Z,54.97
2023-05-21T02:40:52.624Z,55.18
2023-05-21T02:41:56.125Z,55.32
2023-05-21T02:42:59.546Z,55.01
2023-05-21T02:44:03.059Z,54.91
2023-05-21T02:45:08.883Z,55.27
2023-05-21T02:46:13.222Z,55.66
2023-05-21T02:47:16.313Z,55.30
2023-05-21T02:48:20.062Z,55.24
2023-05-21T02:49:23.393Z,56.13
2023-05-21T02:50:26.982Z,56.20
2023-05-21T02:51:33.999Z,56.64
2023-05-21T02:52:37.730Z,56.58
2023-05-21T02:53:41.181Z,57.14
2023-05-21T02:54:45.142Z,57.63
2023-05-21T02:55:48.962Z,57.36
2023-05-21T02:56:52.092Z,57.27
2023-05-21T02:57:55.710Z,57.32
2023-05-21T02:58:59.107Z,57.54
2023-05-21T03:00:02.564Z,56.91
2023-05-21T03:01:07.792Z,57.39
2023-05-21T03:02:11.290Z,56.78
2023-05-21T03:03:14.952Z,56.71
2023-05-21T03:04:18.978Z,56.50
2023-05-21T03:05:22.493Z,56.56
2023-05-21T03:06:27.054Z,56.17
2023-05-21T03:07:30.746Z,56.44
2023-05-21T03:08:34.530Z,56.26
2023-05-21T03:09:38.296Z,56.45
2023-05-21T03:10:41.402Z,55.92
2023-05-21T03:11:45.129Z,57.19
2023-05-21T03:12:48.721Z,56.44
2023-05-21T03:13:52.170Z,57.53
2023-05-21T03:14:57.304Z,57.91
2023-05-21T03:16:00.842Z,57.00
2023-05-21T03:17:06.874Z,57.41
2023-05-21T03:18:12.439Z,58.32
2023-05-21T03:19:16.466Z,58.38
2023-05-21T03:20:20.925Z,58.70
2023-05-21T03:21:24.491Z,58.00
2023-05-21T03:22:27.480Z,58.34
2023-05-21T03:23:30.784Z,58.36
2023-05-21T03:24:34.603Z,58.34
2023-05-21T03:25:38.788Z,58.53
2023-05-21T03:26:42.111Z,58.70
2023-05-21T03:27:45.152Z,59.31
2023-05-21T03:29:06.872Z,59.35
2023-05-21T03:30:12.783Z,59.38
2023-05-21T03:31:33.035Z,58.38
2023-05-21T03:32:48.340Z,58.41
2023-05-21T03:33:51.799Z,58.56
2023-05-21T03:35:00.267Z,58.65
2023-05-21T03:36:03.926Z,58.72
2023-05-21T03:37:11.631Z,58.20
2023-05-21T03:38:15.038Z,58.43
2023-05-21T03:39:18.967Z,58.42
2023-05-21T03:40:22.564Z,58.19
2023-05-21T03:41:26.738Z,58.12
2023-05-21T03:42:35.629Z,57.76
2023-05-21T03:43:38.923Z,58.04
2023-05-21T03:44:42.296Z,57.92
2023-05-21T03:46:08.941Z,57.92
2023-05-21T03:47:39.927Z,57.57
2023-05-21T03:48:44.493Z,57.33
2023-05-21T03:49:51.037Z,57.12
2023-05-21T03:50:54.765Z,56.95
2023-05-21T03:51:58.013Z,57.23
2023-05-21T03:53:03.014Z,57.07
2023-05-21T03:54:07.248Z,57.74
2023-05-21T03:55:14.501Z,58.01
2023-05-21T03:56:18.098Z,58.70
2023-05-21T03:57:22.022Z,57.92
2023-05-21T03:58:25.700Z,59.39
2023-05-21T03:59:30.337Z,59.28
2023-05-21T04:00:35.494Z,59.62
2023-05-21T04:01:39.586Z,59.22
2023-05-21T04:02:46.638Z,59.02
2023-05-21T04:03:52.983Z,58.92
2023-05-21T04:04:59.964Z,58.49
2023-05-21T04:06:04.557Z,58.35
2023-05-21T04:07:14.958Z,59.01
2023-05-21T04:08:18.393Z,58.39
2023-05-21T04:09:22.484Z,58.09
2023-05-21T04:10:26.350Z,57.54
2023-05-21T04:11:30.946Z,58.44
2023-05-21T04:12:34.166Z,57.56
2023-05-21T04:13:37.541Z,57.38
2023-05-21T04:14:41.252Z,57.27
2023-05-21T04:15:45.314Z,56.78
2023-05-21T04:16:50.087Z,56.64
2023-05-21T04:17:53.509Z,56.70
2023-05-21T04:18:57.710Z,56.84
2023-05-21T04:20:03.263Z,56.72
2023-05-21T04:21:07.701Z,56.57
2023-05-21T04:22:12.899Z,56.45
2023-05-21T04:23:16.629Z,57.13
2023-05-21T04:24:20.956Z,56.58
2023-05-21T04:25:35.285Z,56.69
2023-05-21T04:26:38.787Z,57.18
2023-05-21T04:27:43.612Z,57.85
2023-05-21T04:28:47.219Z,57.45
2023-05-21T04:29:51.737Z,58.18
2023-05-21T04:30:57.054Z,58.56
2023-05-21T04:32:01.192Z,58.83
2023-05-21T04:33:05.038Z,58.89
2023-05-21T04:34:10.808Z,59.21
2023-05-21T04:35:15.762Z,59.19
2023-05-21T04:36:19.155Z,59.78
2023-05-21T04:37:25.434Z,59.76
2023-05-21T04:38:28.960Z,60.06
2023-05-21T04:39:32.166Z,60.20
2023-05-21T04:40:36.645Z,59.87
2023-05-21T04:41:40.765Z,60.12
2023-05-21T04:42:44.838Z,60.04
2023-05-21T04:43:48.177Z,59.48
2023-05-21T04:44:52.890Z,59.07
2023-05-21T04:45:56.501Z,58.51
2023-05-21T04:47:01.152Z,58.11
2023-05-21T04:48:04.760Z,58.02
2023-05-21T04:49:08.395Z,56.65
2023-05-21T04:50:11.716Z,57.18
2023-05-21T04:51:15.599Z,57.32
2023-05-21T04:52:19.374Z,57.16
2023-05-21T04:53:23.924Z,57.60
2023-05-21T04:54:27.094Z,57.20
2023-05-21T04:55:30.410Z,56.73
2023-05-21T04:56:33.936Z,56.59
2023-05-21T04:57:38.460Z,56.21
2023-05-21T04:58:41.395Z,55.75
2023-05-21T04:59:45.174Z,55.67
2023-05-21T05:00:52.272Z,55.36
2023-05-21T05:01:56.739Z,55.54
2023-05-21T05:03:00.095Z,55.45
2023-05-21T05:04:04.227Z,55.20
2023-05-21T05:05:08.051Z,55.06
2023-05-21T05:06:11.730Z,54.97
2023-05-21T05:07:16.158Z,55.28
2023-05-21T05:08:19.227Z,56.76
2023-05-21T05:09:26.354Z,56.24
2023-05-21T05:10:30.107Z,56.19
2023-05-21T05:11:33.690Z,56.54
2023-05-21T05:12:37.283Z,55.95
2023-05-21T05:13:45.096Z,55.97
2023-05-21T05:14:48.955Z,56.16
2023-05-21T05:15:54.536Z,56.29
2023-05-21T05:17:01.939Z,56.38
2023-05-21T05:18:05.560Z,56.96
2023-05-21T05:19:08.952Z,57.17
2023-05-21T05:20:13.129Z,57.62
2023-05-21T05:21:16.721Z,57.16
2023-05-21T05:22:20.246Z,57.90
2023-05-21T05:23:24.476Z,57.22
2023-05-21T05:24:28.218Z,57.80
2023-05-21T05:25:31.809Z,57.56
2023-05-21T05:26:35.413Z,57.14
2023-05-21T05:27:38.909Z,57.28
2023-05-21T05:28:42.744Z,56.81
2023-05-21T05:29:46.573Z,57.04
2023-05-21T05:30:50.501Z,57.37
2023-05-21T05:32:01.837Z,57.70
2023-05-21T05:33:05.747Z,57.59
2023-05-21T05:34:09.262Z,57.02
2023-05-21T05:35:12.736Z,57.59
2023-05-21T05:36:16.682Z,57.53
2023-05-21T05:37:20.562Z,57.42
2023-05-21T05:38:24.001Z,57.20
2023-05-21T05:39:27.758Z,56.95
2023-05-21T05:40:31.244Z,56.42
2023-05-21T05:41:35.071Z,56.34
2023-05-21T05:42:38.741Z,56.14
2023-05-21T05:43:48.119Z,55.63
2023-05-21T05:44:52.322Z,55.89
2023-05-21T05:45:56.064Z,55.62
2023-05-21T05:47:00.673Z,55.41
2023-05-21T05:48:04.691Z,54.54
2023-05-21T05:49:07.707Z,54.56
2023-05-21T05:50:11.884Z,54.04
2023-05-21T05:51:18.082Z,53.88
2023-05-21T05:52:22.126Z,53.77
2023-05-21T05:53:25.960Z,53.74
2023-05-21T05:54:29.764Z,53.72
2023-05-21T05:55:33.322Z,53.61
2023-05-21T05:56:37.001Z,53.91
2023-05-21T05:57:42.631Z,53.68
2023-05-21T05:58:50.512Z,53.45
2023-05-21T05:59:54.157Z,53.44
2023-05-21T06:00:58.006Z,53.84
2023-05-21T06:02:03.353Z,54.30
2023-05-21T06:03:07.065Z,53.77
2023-05-21T06:04:10.777Z,53.92
2023-05-21T06:05:14.471Z,53.76
2023-05-21T06:06:17.826Z,54.08
2023-05-21T06:07:21.728Z,53.93
2023-05-21T06:08:25.586Z,53.77
2023-05-21T06:09:29.077Z,54.30
2023-05-21T06:10:32.868Z,54.36
2023-05-21T06:11:37.119Z,53.82
2023-05-21T06:12:40.564Z,53.87
2023-05-21T06:13:44.256Z,53.52
2023-05-21T06:14:49.505Z,53.78
2023-05-21T06:15:54.287Z,53.02
2023-05-21T06:16:57.936Z,53.23
2023-05-21T06:18:04.240Z,53.88
2023-05-21T06:19:07.807Z,53.18
2023-05-21T06:20:11.316Z,53.38
2023-05-21T06:21:15.034Z,53.49
2023-05-21T06:22:18.280Z,53.72
2023-05-21T06:23:21.772Z,53.54
2023-05-21T06:24:26.457Z,53.11
2023-05-21T06:25:29.797Z,53.06
2023-05-21T06:26:33.372Z,54.70
2023-05-21T06:27:37.757Z,53.80
2023-05-21T06:28:45.866Z,53.91
2023-05-21T06:29:49.704Z,54.05
2023-05-21T06:30:53.189Z,53.73
2023-05-21T06:31:56.535Z,53.67
2023-05-21T06:33:00.123Z,53.36
2023-05-21T06:34:04.606Z,53.15
2023-05-21T06:35:09.468Z,52.90
2023-05-21T06:36:13.419Z,52.90
2023-05-21T06:37:20.699Z,53.01
2023-05-21T06:38:24.127Z,53.17
2023-05-21T06:39:28.160Z,52.95
2023-05-21T06:40:31.825Z,52.61
2023-05-21T06:41:36.449Z,52.76
2023-05-21T06:43:00.802Z,52.19
2023-05-21T06:44:30.587Z,52.13
2023-05-21T06:45:51.582Z,52.27
2023-05-21T06:47:04.898Z,51.67
2023-05-21T06:48:08.736Z,51.54
2023-05-21T06:49:14.658Z,51.26
2023-05-21T06:50:19.789Z,51.34
2023-05-21T06:51:23.264Z,51.36
2023-05-21T06:52:29.476Z,50.59
2023-05-21T06:53:32.403Z,50.22
2023-05-21T06:54:36.075Z,49.59
2023-05-21T06:55:39.899Z,49.27
2023-05-21T06:56:52.854Z,48.61
2023-05-21T06:57:57.946Z,48.10
2023-05-21T06:59:00.969Z,47.49
2023-05-21T07:00:04.548Z,46.78
2023-05-21T07:01:09.622Z,46.49
2023-05-21T07:02:13.530Z,46.30
2023-05-21T07:03:17.814Z,45.50
2023-05-21T07:04:21.233Z,44.36
2023-05-21T07:05:24.335Z,43.19
2023-05-21T07:06:28.017Z,42.41
2023-05-21T07:07:32.153Z,41.20
2023-05-21T07:08:35.463Z,41.12
2023-05-21T07:09:39.624Z,42.44
2023-05-21T07:10:43.843Z,42.92
2023-05-21T07:11:48.079Z,44.07
2023-05-21T07:12:53.316Z,44.79
2023-05-21T07:14:02.909Z,44.89
2023-05-21T07:15:10.167Z,45.14
2023-05-21T07:16:13.852Z,44.96
2023-05-21T07:17:17.582Z,44.97
2023-05-21T07:18:21.385Z,44.83
2023-05-21T07:19:25.223Z,45.53
2023-05-21T07:20:30.043Z,45.99
2023-05-21T07:21:38.375Z,45.49
2023-05-21T07:22:44.949Z,45.16
2023-05-21T07:23:50.436Z,44.18
2023-05-21T07:24:54.705Z,44.46
2023-05-21T07:25:58.300Z,44.44
2023-05-21T07:27:04.619Z,44.14
2023-05-21T07:28:12.828Z,43.75
2023-05-21T07:29:16.058Z,44.15
2023-05-21T07:30:20.462Z,44.62
2023-05-21T07:31:24.043Z,43.87
2023-05-21T07:32:30.047Z,43.33
2023-05-21T07:33:34.383Z,42.43
2023-05-21T07:34:38.442Z,43.54
2023-05-21T07:35:42.161Z,43.38
2023-05-21T07:36:46.037Z,43.86
2023-05-21T07:37:49.363Z,43.06
2023-05-21T07:38:53.953Z,43.47
2023-05-21T07:39:58.684Z,41.81
2023-05-21T07:41:01.695Z,41.72
2023-05-21T07:42:05.596Z,42.11
2023-05-21T07:43:09.458Z,40.88
2023-05-21T07:44:15.251Z,40.79
2023-05-21T07:45:20.215Z,40.00
2023-05-21T07:46:23.958Z,39.20
2023-05-21T07:47:31.711Z,37.98
2023-05-21T07:48:36.502Z,36.45
2023-05-21T07:49:40.863Z,35.96
2023-05-21T07:50:44.257Z,34.28
2023-05-21T07:51:47.883Z,33.06
2023-05-21T07:52:52.446Z,32.34
2023-05-21T07:53:57.453Z,32.02
2023-05-21T07:55:09.451Z,30.89
2023-05-21T07:56:14.274Z,29.41
2023-05-21T07:57:18.784Z,28.76
2023-05-21T07:58:32.351Z,28.05
2023-05-21T07:59:35.524Z,27.90
2023-05-21T08:00:45.000Z,28.07
2023-05-21T08:01:48.713Z,28.59
2023-05-21T08:02:53.297Z,31.30
2023-05-21T08:03:57.372Z,30.81
2023-05-21T08:05:02.182Z,30.09
2023-05-21T08:06:05.503Z,29.39
2023-05-21T08:07:10.617Z,29.13
2023-05-21T08:08:14.144Z,28.92
2023-05-21T08:09:17.497Z,28.46
2023-05-21T08:10:20.780Z,27.00
2023-05-21T08:11:27.521Z,26.06
2023-05-21T08:12:31.374Z,25.33
2023-05-21T08:13:34.672Z,25.41
2023-05-21T08:14:39.411Z,25.74
2023-05-21T08:15:42.759Z,25.22
2023-05-21T08:16:47.626Z,25.45
2023-05-21T08:17:51.149Z,25.74
2023-05-21T08:18:54.788Z,24.98
2023-05-21T08:19:57.961Z,24.74
2023-05-21T08:21:01.164Z,24.47
2023-05-21T08:22:07.441Z,23.81
2023-05-21T08:23:13.273Z,25.32
2023-05-21T08:24:25.326Z,25.34
2023-05-21T08:25:29.186Z,27.13
2023-05-21T08:26:33.813Z,27.13
2023-05-21T08:27:39.059Z,28.38
2023-05-21T08:28:42.085Z,29.51
2023-05-21T08:29:45.804Z,29.07
2023-05-21T08:30:49.326Z,27.90
2023-05-21T08:31:53.221Z,26.93
2023-05-21T08:32:57.022Z,26.05
2023-05-21T08:34:02.013Z,26.58
2023-05-21T08:35:21.036Z,26.86
2023-05-21T08:36:50.577Z,26.88
2023-05-21T08:38:14.208Z,26.67
2023-05-21T08:39:21.707Z,25.97
2023-05-21T08:40:24.819Z,25.91
2023-05-21T08:41:28.620Z,26.32
2023-05-21T08:42:46.449Z,26.87
2023-05-21T08:44:00.427Z,25.75
2023-05-21T08:45:06.057Z,27.57
2023-05-21T08:46:10.288Z,27.75
2023-05-21T08:47:17.085Z,27.67
2023-05-21T08:48:20.662Z,26.71
2023-05-21T08:49:27.072Z,25.95
2023-05-21T08:50:32.013Z,24.73
2023-05-21T08:51:40.508Z,24.92
2023-05-21T08:52:44.391Z,25.59
2023-05-21T08:53:48.047Z,25.60
2023-05-21T08:54:55.155Z,26.01
2023-05-21T08:55:58.227Z,26.00
2023-05-21T08:57:13.695Z,24.75
2023-05-21T08:58:16.907Z,24.77
2023-05-21T08:59:20.117Z,25.25
2023-05-21T09:00:25.210Z,25.57
2023-05-21T09:01:29.748Z,26.69
2023-05-21T09:02:54.955Z,28.31
2023-05-21T09:04:12.168Z,28.01
2023-05-21T09:06:42.475Z,27.52
2023-05-21T09:07:56.624Z,28.17
2023-05-21T09:09:21.327Z,29.08
2023-05-21T09:10:33.074Z,28.13
2023-05-21T09:11:36.668Z,27.64
2023-05-21T09:12:40.844Z,25.95
2023-05-21T09:13:44.180Z,26.33
2023-05-21T09:14:54.498Z,26.25
2023-05-21T09:16:02.763Z,25.91
2023-05-21T09:17:07.033Z,25.71
2023-05-21T09:18:10.955Z,25.42
2023-05-21T09:19:41.625Z,24.39
2023-05-21T09:20:46.315Z,24.73
2023-05-21T09:21:51.663Z,24.44
2023-05-21T09:22:57.419Z,23.00
2023-05-21T09:24:01.780Z,23.34
2023-05-21T09:25:08.971Z,23.45
2023-05-21T09:26:13.320Z,24.75
2023-05-21T09:27:18.219Z,24.87
2023-05-21T09:28:21.713Z,25.48
2023-05-21T09:29:27.056Z,25.80
2023-05-21T09:30:32.575Z,25.36
2023-05-21T09:31:44.743Z,24.29
2023-05-21T09:32:53.447Z,23.46
2023-05-21T09:33:57.360Z,22.88
2023-05-21T09:35:17.194Z,21.89
2023-05-21T09:36:23.857Z,21.29
2023-05-21T09:37:29.026Z,20.70
2023-05-21T09:38:34.743Z,20.95
2023-05-21T09:39:39.445Z,20.00
2023-05-21T09:40:49.178Z,20.68
2023-05-21T09:41:54.275Z,20.80
2023-05-21T09:42:58.030Z,21.99
2023-05-21T09:44:05.678Z,22.25
2023-05-21T09:45:12.076Z,22.66
2023-05-21T09:46:16.487Z,22.71
2023-05-21T09:47:21.714Z,22.75
2023-05-21T09:48:41.461Z,23.14
2023-05-21T09:49:50.516Z,22.79
2023-05-21T09:50:54.218Z,22.89
2023-05-21T09:51:58.323Z,23.02
2023-05-21T09:53:01.754Z,22.78
2023-05-21T09:54:05.365Z,22.18
2023-05-21T09:55:12.917Z,22.05
2023-05-21T09:56:16.203Z,23.08
2023-05-21T09:57:27.438Z,24.95
2023-05-21T09:58:30.524Z,24.20
2023-05-21T09:59:37.614Z,23.80
2023-05-21T10:00:41.173Z,22.27
2023-05-21T10:01:44.645Z,21.69
2023-05-21T10:02:48.464Z,21.30
2023-05-21T10:04:00.325Z,20.54
2023-05-21T10:05:03.930Z,20.38
2023-05-21T10:06:10.159Z,20.68
2023-05-21T10:07:13.776Z,21.57
2023-05-21T10:08:17.712Z,20.71
2023-05-21T10:09:21.162Z,21.34
2023-05-21T10:10:24.948Z,21.30
2023-05-21T10:11:31.790Z,21.75
2023-05-21T10:12:34.965Z,22.60
2023-05-21T10:13:40.351Z,23.07
2023-05-21T10:14:43.701Z,23.30
2023-05-21T10:15:50.776Z,23.04
2023-05-21T10:16:55.602Z,23.26
2023-05-21T10:17:59.060Z,23.11
2023-05-21T10:19:02.316Z,23.63
2023-05-21T10:20:06.642Z,24.35
2023-05-21T10:21:09.759Z,24.56
2023-05-21T10:22:13.576Z,23.97
2023-05-21T10:23:17.421Z,23.77
2023-05-21T10:24:21.157Z,24.28
2023-05-21T10:25:24.788Z,25.40
2023-05-21T10:26:28.211Z,24.57
2023-05-21T10:27:32.746Z,22.94
2023-05-21T10:28:36.270Z,21.87
2023-05-21T10:29:39.753Z,21.11
2023-05-21T10:30:43.288Z,20.20
2023-05-21T10:31:50.188Z,19.62
2023-05-21T10:32:53.675Z,19.21
2023-05-21T10:33:57.578Z,18.70
2023-05-21T10:35:02.071Z,18.06
2023-05-21T10:36:05.968Z,17.25
2023-05-21T10:37:10.505Z,16.79
2023-05-21T10:38:14.155Z,15.97
2023-05-21T10:39:18.226Z,17.19
2023-05-21T10:40:21.662Z,16.86
2023-05-21T10:41:25.360Z,17.06
2023-05-21T10:42:34.386Z,16.07
2023-05-21T10:44:05.338Z,15.62
2023-05-21T10:45:46.785Z,15.12
2023-05-21T10:47:04.982Z,15.51
2023-05-21T10:48:20.084Z,15.56
2023-05-21T10:49:39.732Z,16.06
2023-05-21T10:50:49.575Z,16.43
2023-05-21T10:52:20.121Z,17.47
2023-05-21T10:53:33.623Z,17.76
2023-05-21T10:54:57.679Z,17.79
2023-05-21T10:56:14.831Z,19.05
2023-05-21T10:57:32.985Z,20.58
2023-05-21T10:59:22.600Z,22.04
2023-05-21T11:00:25.733Z,24.47
2023-05-21T11:01:34.840Z,24.82
2023-05-21T11:02:37.947Z,25.71
2023-05-21T11:03:41.936Z,25.00
2023-05-21T11:04:46.209Z,24.53
2023-05-21T11:05:53.222Z,24.65
2023-05-21T11:06:57.060Z,24.48
2023-05-21T11:08:02.657Z,24.66
2023-05-21T11:09:24.245Z,24.37
2023-05-21T11:10:45.434Z,24.04
2023-05-21T11:11:59.035Z,23.36
2023-05-21T11:13:15.494Z,24.19
2023-05-21T11:14:42.685Z,25.12
2023-05-21T11:16:02.337Z,25.69
2023-05-21T11:17:17.116Z,25.30
2023-05-21T11:18:20.999Z,25.19
2023-05-21T11:19:32.499Z,25.44
2023-05-21T11:20:38.111Z,24.91
2023-05-21T11:21:41.622Z,25.65
2023-05-21T11:22:44.458Z,24.95
2023-05-21T11:24:04.981Z,25.39
2023-05-21T11:25:09.265Z,25.79
2023-05-21T11:26:12.349Z,26.27
2023-05-21T11:27:31.674Z,25.98
2023-05-21T11:28:35.451Z,26.29
2023-05-21T11:29:45.673Z,26.14
2023-05-21T11:31:27.460Z,25.09
2023-05-21T11:32:30.470Z,25.02
2023-05-21T11:33:33.807Z,25.00
2023-05-21T11:34:43.989Z,24.78
2023-05-21T11:35:47.254Z,24.38
2023-05-21T11:36:50.752Z,24.45
2023-05-21T11:37:54.790Z,24.25
2023-05-21T11:39:23.123Z,24.51
2023-05-21T11:40:27.810Z,23.90
2023-05-21T11:41:31.613Z,24.49
2023-05-21T11:42:35.629Z,24.03
2023-05-21T11:43:41.813Z,24.28
2023-05-21T11:44:46.535Z,23.86
2023-05-21T11:45:49.797Z,23.42
2023-05-21T11:46:53.292Z,23.27
2023-05-21T11:47:56.785Z,23.84
2023-05-21T11:49:00.184Z,24.22
2023-05-21T11:50:04.990Z,24.58
2023-05-21T11:51:08.695Z,24.68
2023-05-21T11:52:12.676Z,25.13
2023-05-21T11:53:16.354Z,25.31
2023-05-21T11:54:19.921Z,25.26
2023-05-21T11:55:24.445Z,25.09
2023-05-21T11:56:27.734Z,25.23
2023-05-21T11:57:31.511Z,25.20
2023-05-21T11:58:35.329Z,24.51
2023-05-21T11:59:39.723Z,24.62
2023-05-21T12:00:43.110Z,24.95
2023-05-21T12:01:46.840Z,25.29
2023-05-21T12:02:54.419Z,25.55
2023-05-21T12:03:58.121Z,26.51
2023-05-21T12:05:01.249Z,26.85
2023-05-21T12:06:07.591Z,26.74
2023-05-21T12:07:11.860Z,26.27
2023-05-21T12:08:22.164Z,26.15
2023-05-21T12:09:25.387Z,25.92
2023-05-21T12:10:29.002Z,25.08
2023-05-21T12:11:31.957Z,25.51
2023-05-21T12:12:45.703Z,25.22
2023-05-21T12:13:57.978Z,25.22
2023-05-21T12:15:02.120Z,25.13
2023-05-21T12:16:06.974Z,24.82
2023-05-21T12:17:10.977Z,24.82
2023-05-21T12:18:17.573Z,24.03
2023-05-21T12:19:21.673Z,24.74
2023-05-21T12:20:28.278Z,24.72
2023-05-21T12:21:32.551Z,25.00
2023-05-21T12:22:36.073Z,24.99
2023-05-21T12:23:39.061Z,24.98
2023-05-21T12:24:44.200Z,25.12
2023-05-21T12:25:47.898Z,25.35
2023-05-21T12:26:53.012Z,25.60
2023-05-21T12:27:59.181Z,25.75
2023-05-21T12:29:03.193Z,25.70
2023-05-21T12:30:07.639Z,25.95
2023-05-21T12:31:17.149Z,26.03
2023-05-21T12:32:21.787Z,25.91
2023-05-21T12:33:26.417Z,25.61
2023-05-21T12:34:46.668Z,25.84
2023-05-21T12:35:50.817Z,26.09
2023-05-21T12:36:54.060Z,25.17
2023-05-21T12:37:57.420Z,26.60
2023-05-21T12:39:00.639Z,25.69
2023-05-21T12:40:11.561Z,26.50
2023-05-21T12:41:14.832Z,27.19
2023-05-21T12:42:18.461Z,27.50
2023-05-21T12:43:22.001Z,27.66
2023-05-21T12:44:29.846Z,27.65
2023-05-21T12:45:33.631Z,27.75
2023-05-21T12:46:37.991Z,27.96
2023-05-21T12:47:41.790Z,27.86
2023-05-21T12:48:53.980Z,28.67
2023-05-21T12:50:01.042Z,28.63
2023-05-21T12:51:04.768Z,28.46
2023-05-21T12:52:12.043Z,28.76
2023-05-21T12:53:15.274Z,28.69
2023-05-21T12:54:18.265Z,28.92
2023-05-21T12:55:21.579Z,29.57
2023-05-21T12:56:26.017Z,29.81
2023-05-21T12:57:36.104Z,30.93
2023-05-21T12:58:39.209Z,30.63
2023-05-21T12:59:47.681Z,30.66
2023-05-21T13:00:51.429Z,30.93
2023-05-21T13:01:55.448Z,30.93
2023-05-21T13:03:01.137Z,30.90
2023-05-21T13:04:06.249Z,31.01
2023-05-21T13:05:20.018Z,30.95
2023-05-21T13:06:23.398Z,31.36
2023-05-21T13:07:27.433Z,30.96
2023-05-21T13:08:31.024Z,31.36
2023-05-21T13:09:34.513Z,31.20
2023-05-21T13:10:38.109Z,32.13
2023-05-21T13:11:41.599Z,32.16
2023-05-21T13:12:45.522Z,32.00
2023-05-21T13:13:48.641Z,32.12
2023-05-21T13:14:52.532Z,31.74
2023-05-21T13:15:56.307Z,31.84
2023-05-21T13:17:00.146Z,31.82
2023-05-21T13:18:03.211Z,31.87
2023-05-21T13:19:07.019Z,31.19
2023-05-21T13:20:21.962Z,31.05
2023-05-21T13:21:25.550Z,30.55
2023-05-21T13:22:28.729Z,30.24
2023-05-21T13:23:32.454Z,30.40
2023-05-21T13:24:35.711Z,29.54
2023-05-21T13:25:39.049Z,30.13
2023-05-21T13:26:42.610Z,29.85
2023-05-21T13:27:45.691Z,30.15
2023-05-21T13:28:49.627Z,30.23
2023-05-21T13:29:52.988Z,30.41
2023-05-21T13:30:56.969Z,30.84
2023-05-21T13:32:00.492Z,30.53
2023-05-21T13:33:04.431Z,30.63
2023-05-21T13:34:08.731Z,31.23
2023-05-21T13:35:12.644Z,31.23
2023-05-21T13:36:15.663Z,31.61
2023-05-21T13:37:19.974Z,31.96
2023-05-21T13:38:23.670Z,32.29
2023-05-21T13:39:28.640Z,33.03
2023-05-21T13:40:32.558Z,33.21
2023-05-21T13:41:36.491Z,32.91
2023-05-21T13:42:40.189Z,32.82
2023-05-21T13:43:43.865Z,32.64
2023-05-21T13:44:48.121Z,32.64
2023-05-21T13:45:52.734Z,32.78
2023-05-21T13:46:56.762Z,32.54
2023-05-21T13:48:00.220Z,32.18
2023-05-21T13:49:04.349Z,31.93
2023-05-21T13:50:08.613Z,31.81
2023-05-21T13:51:17.593Z,31.70
2023-05-21T13:52:25.746Z,31.77
2023-05-21T13:53:30.401Z,31.92
2023-05-21T13:54:34.276Z,31.78
2023-05-21T13:55:37.483Z,31.48
2023-05-21T13:56:40.612Z,31.47
2023-05-21T13:57:43.894Z,31.21
2023-05-21T13:58:47.919Z,31.46
2023-05-21T13:59:51.347Z,31.93
2023-05-21T14:00:57.676Z,31.97
2023-05-21T14:02:00.845Z,32.29
2023-05-21T14:03:07.206Z,32.39
2023-05-21T14:04:11.106Z,32.52
2023-05-21T14:05:14.646Z,32.48
2023-05-21T14:06:18.054Z,33.00
2023-05-21T14:07:22.538Z,32.96